Time;durP1;ratioP1;P1;durP2;ratioP2;P2;SDS_P1;SDS_P2;PMS_P1;PMS_P2;Temp;Humidity;BMP_temperature;BMP_pressure;BME280_temperature;BME280_humidity;BME280_pressure;Samples;Min_cycle;Max_cycle;Signal;HPM_P1;HPM_P2
2021/04/26 00:01:50;;;;;;;7.40;2.80;;;17.50;48.40;;;;;;5042065;28;20048;-60
2021/04/26 00:04:16;;;;;;;3.03;2.60;;;17.40;48.50;;;;;;5022873;28;20025;-61
2021/04/26 00:06:42;;;;;;;7.45;2.95;;;17.30;48.40;;;;;;5039991;28;20489;-60
2021/04/26 00:09:08;;;;;;;4.13;2.85;;;17.30;48.40;;;;;;5040106;28;20032;-60
2021/04/26 00:11:33;;;;;;;3.80;2.55;;;17.30;48.40;;;;;;5043907;28;20453;-60
2021/04/26 00:13:59;;;;;;;5.15;2.65;;;17.30;48.40;;;;;;5026983;28;20849;-60
2021/04/26 00:16:24;;;;;;;3.15;2.72;;;17.20;48.40;;;;;;5043364;28;20484;-60
2021/04/26 00:18:50;;;;;;;3.35;2.63;;;17.20;48.30;;;;;;5041628;28;20049;-60
2021/04/26 00:21:15;;;;;;;4.53;2.90;;;17.30;48.30;;;;;;5017463;28;20033;-61
2021/04/26 00:23:41;;;;;;;5.13;2.75;;;17.20;48.30;;;;;;5040863;28;20125;-60
2021/04/26 00:26:06;;;;;;;4.40;2.58;;;17.20;48.50;;;;;;5043882;28;20032;-61
2021/04/26 00:28:32;;;;;;;4.63;3.00;;;17.10;48.30;;;;;;5041989;28;20076;-60
2021/04/26 00:30:57;;;;;;;3.58;2.67;;;17.10;48.30;;;;;;5023354;28;20605;-61
2021/04/26 00:33:23;;;;;;;3.58;2.50;;;17.10;48.20;;;;;;5041287;28;20453;-60
2021/04/26 00:35:48;;;;;;;5.82;2.67;;;17.10;48.10;;;;;;5043161;28;20452;-61
2021/04/26 00:38:14;;;;;;;4.05;2.85;;;17.10;48.30;;;;;;5040162;28;20358;-61
2021/04/26 00:40:39;;;;;;;6.63;2.70;;;17.00;48.20;;;;;;5043829;28;20094;-61
2021/04/26 00:43:05;;;;;;;4.13;2.80;;;17.00;48.20;;;;;;5024458;28;20033;-61
2021/04/26 00:45:30;;;;;;;5.50;3.13;;;17.00;48.20;;;;;;5023366;28;20560;-61
2021/04/26 00:47:56;;;;;;;5.60;3.08;;;17.00;48.20;;;;;;5039758;28;20052;-61
2021/04/26 00:50:26;;;;;;;3.80;2.95;;;17.00;48.10;;;;;;5023301;28;20032;-61
2021/04/26 00:52:52;;;;;;;5.88;2.78;;;16.90;48.10;;;;;;5022912;28;20041;-61
2021/04/26 00:55:19;;;;;;;3.92;2.70;;;16.90;48.10;;;;;;5008555;28;20040;-61
2021/04/26 00:57:44;;;;;;;5.10;3.03;;;16.90;48.10;;;;;;5022645;28;20049;-61
2021/04/26 01:00:10;;;;;;;6.85;2.90;;;16.80;47.90;;;;;;5023843;28;20585;-60
2021/04/26 01:02:36;;;;;;;4.28;3.10;;;16.80;48.00;;;;;;5042473;28;20085;-60
2021/04/26 01:05:02;;;;;;;4.70;3.00;;;16.80;48.00;;;;;;5022507;28;20025;-61
2021/04/26 01:07:29;;;;;;;3.88;2.97;;;16.80;48.00;;;;;;5037451;28;20479;-61
2021/04/26 01:09:54;;;;;;;5.05;2.97;;;16.80;48.20;;;;;;5005199;28;20028;-60
2021/04/26 01:12:44;;;;;;;6.05;2.92;;;16.70;48.10;;;;;;5041218;28;20041;-61
2021/04/26 01:15:15;;;;;;;5.10;2.88;;;16.70;48.10;;;;;;5022662;28;20028;-61
2021/04/26 01:17:44;;;;;;;3.78;2.80;;;16.60;48.10;;;;;;5037971;28;20437;-61
2021/04/26 01:20:14;;;;;;;6.13;3.03;;;16.60;48.20;;;;;;5022984;28;20056;-61
2021/04/26 01:23:04;;;;;;;4.15;2.60;;;16.60;48.20;;;;;;5021304;28;20036;-61
2021/04/26 01:25:29;;;;;;;3.97;2.70;;;16.60;48.10;;;;;;5022907;28;20049;-60
2021/04/26 01:28:17;;;;;;;14.10;3.45;;;16.60;48.10;;;;;;5007554;28;20036;-60
2021/04/26 01:30:47;;;;;;;9.38;2.85;;;16.50;48.00;;;;;;5024623;28;20037;-60
2021/04/26 01:33:16;;;;;;;5.60;3.17;;;16.60;48.10;;;;;;5022072;28;20028;-60
2021/04/26 01:35:42;;;;;;;8.90;3.22;;;16.50;48.10;;;;;;5005980;28;20382;-61
2021/04/26 01:38:21;;;;;;;15.35;3.40;;;16.50;48.10;;;;;;5018147;28;20056;-60
2021/04/26 01:40:50;;;;;;;19.15;3.75;;;16.40;48.10;;;;;;5007817;28;20017;-61
2021/04/26 01:43:18;;;;;;;19.40;3.90;;;16.40;48.10;;;;;;5004889;28;20025;-61
2021/04/26 01:45:44;;;;;;;16.33;4.13;;;16.40;48.10;;;;;;5022661;28;20020;-61
2021/04/26 01:48:10;;;;;;;18.58;3.85;;;16.40;48.10;;;;;;5022813;28;20017;-60
2021/04/26 01:50:36;;;;;;;24.77;4.13;;;16.30;48.10;;;;;;5021280;28;20499;-60
2021/04/26 01:53:01;;;;;;;21.33;4.57;;;16.30;48.20;;;;;;5019084;28;20041;-60
2021/04/26 01:55:27;;;;;;;26.02;5.68;;;16.30;48.20;;;;;;5022520;28;20033;-61
2021/04/26 01:57:52;;;;;;;42.95;4.97;;;16.30;48.20;;;;;;5018614;28;20027;-60
2021/04/26 02:00:24;;;;;;;25.10;4.40;;;16.30;48.20;;;;;;5019394;28;20476;-60
2021/04/26 02:02:49;;;;;;;28.80;5.05;;;16.30;48.20;;;;;;5038218;28;20025;-61
2021/04/26 02:05:15;;;;;;;26.67;4.50;;;16.20;48.30;;;;;;5002701;28;20114;-60
2021/04/26 02:07:42;;;;;;;34.45;4.50;;;16.20;48.30;;;;;;5006365;28;20033;-61
2021/04/26 02:10:08;;;;;;;34.65;5.40;;;16.20;48.30;;;;;;5023123;28;20040;-61
2021/04/26 02:12:33;;;;;;;99.78;9.07;;;16.20;48.30;;;;;;5040542;28;20040;-61
2021/04/26 02:15:00;;;;;;;70.25;6.97;;;16.20;48.40;;;;;;5003690;28;20025;-60
2021/04/26 02:17:26;;;;;;;68.85;6.70;;;16.10;48.40;;;;;;5004206;28;20041;-61
2021/04/26 02:19:51;;;;;;;55.70;6.43;;;16.10;48.40;;;;;;5008515;28;20028;-60
2021/04/26 02:22:17;;;;;;;66.68;6.28;;;16.10;48.40;;;;;;5025915;28;20223;-60
2021/04/26 02:24:42;;;;;;;48.28;6.10;;;16.10;48.50;;;;;;5025883;28;20490;-60
2021/04/26 02:27:08;;;;;;;63.53;6.57;;;16.10;48.50;;;;;;5026641;28;20033;-60
2021/04/26 02:29:34;;;;;;;60.67;7.40;;;16.00;48.70;;;;;;5023849;28;20062;-60
2021/04/26 02:32:01;;;;;;;58.67;6.25;;;16.00;48.90;;;;;;5020004;28;20876;-61
2021/04/26 02:34:29;;;;;;;49.88;6.65;;;16.00;48.90;;;;;;5021754;28;20095;-60
2021/04/26 02:37:29;;;;;;;59.25;7.70;;;16.00;49.00;;;;;;5006548;28;20067;-60
2021/04/26 02:39:57;;;;;;;45.58;6.88;;;16.00;49.00;;;;;;5020468;28;20044;-60
2021/04/26 02:42:22;;;;;;;48.08;6.07;;;16.00;48.90;;;;;;5022540;28;20126;-60
2021/04/26 02:44:48;;;;;;;51.60;6.45;;;15.90;49.10;;;;;;5019486;28;20063;-60
2021/04/26 02:47:16;;;;;;;33.97;5.82;;;15.90;49.00;;;;;;5007355;28;20457;-60
2021/04/26 02:49:43;;;;;;;37.63;6.03;;;15.90;49.00;;;;;;5022173;28;20406;-61
2021/04/26 02:52:08;;;;;;;34.85;5.40;;;15.90;49.00;;;;;;5006938;28;20045;-61
2021/04/26 02:54:34;;;;;;;43.83;6.60;;;15.90;49.00;;;;;;5003739;28;20035;-60
2021/04/26 02:56:59;;;;;;;27.90;5.30;;;15.80;49.20;;;;;;5023959;28;20628;-60
2021/04/26 02:59:25;;;;;;;51.95;6.20;;;15.80;49.40;;;;;;5005369;28;20037;-62
2021/04/26 03:01:51;;;;;;;39.42;5.22;;;15.80;49.50;;;;;;4991581;28;20524;-60
2021/04/26 03:04:16;;;;;;;30.35;5.07;;;15.80;49.40;;;;;;5023307;28;20524;-61
2021/04/26 03:06:42;;;;;;;35.58;4.95;;;15.70;49.40;;;;;;5021311;28;20631;-60
2021/04/26 03:09:08;;;;;;;34.05;5.10;;;15.70;49.30;;;;;;5020981;28;20076;-60
2021/04/26 03:11:34;;;;;;;33.95;5.70;;;15.70;49.40;;;;;;5022351;28;20064;-60
2021/04/26 03:13:59;;;;;;;34.97;5.53;;;15.70;49.40;;;;;;5006249;28;20108;-60
2021/04/26 03:16:25;;;;;;;34.42;4.70;;;15.70;49.50;;;;;;5006850;28;20033;-60
2021/04/26 03:18:50;;;;;;;34.58;5.85;;;15.70;49.60;;;;;;5039660;28;20090;-61
2021/04/26 03:21:16;;;;;;;113.50;10.07;;;15.60;49.60;;;;;;5039882;28;20112;-60
2021/04/26 03:23:41;;;;;;;46.42;6.55;;;15.60;49.60;;;;;;5002230;28;20603;-61
2021/04/26 03:26:07;;;;;;;34.70;5.80;;;15.60;49.60;;;;;;5024469;28;20041;-60
2021/04/26 03:28:34;;;;;;;56.65;7.35;;;15.60;49.60;;;;;;5021683;28;20028;-60
2021/04/26 03:31:00;;;;;;;58.38;6.32;;;15.50;49.60;;;;;;5005414;28;20886;-60
2021/04/26 03:33:26;;;;;;;66.75;7.88;;;15.50;49.70;;;;;;5003404;28;20032;-60
2021/04/26 03:35:54;;;;;;;56.35;6.85;;;15.50;49.80;;;;;;5004983;28;20041;-60
2021/04/26 03:38:19;;;;;;;41.42;6.25;;;15.50;49.70;;;;;;5018417;28;20555;-60
2021/04/26 03:40:45;;;;;;;47.30;6.25;;;15.50;49.70;;;;;;5023554;28;20041;-60
2021/04/26 03:43:11;;;;;;;37.05;5.78;;;15.50;49.70;;;;;;5000002;28;20025;-60
2021/04/26 03:45:38;;;;;;;52.28;6.35;;;15.40;49.70;;;;;;5037678;28;20025;-60
2021/04/26 03:48:04;;;;;;;42.28;6.03;;;15.40;49.80;;;;;;5004972;28;20049;-60
2021/04/26 03:50:29;;;;;;;34.00;5.05;;;15.40;49.80;;;;;;5037883;28;20057;-60
2021/04/26 03:52:55;;;;;;;34.78;5.57;;;15.40;50.40;;;;;;5021406;28;20060;-61
2021/04/26 03:55:22;;;;;;;40.35;6.53;;;15.30;49.80;;;;;;5025113;28;20056;-60
2021/04/26 03:57:47;;;;;;;43.25;7.00;;;15.30;49.90;;;;;;5006241;28;20562;-60
2021/04/26 04:00:14;;;;;;;40.13;6.20;;;15.30;49.90;;;;;;5039585;28;20036;-60
2021/04/26 04:02:39;;;;;;;37.20;5.80;;;15.30;50.00;;;;;;5020133;28;20076;-60
2021/04/26 04:05:06;;;;;;;51.42;6.35;;;15.20;50.00;;;;;;5040629;28;20107;-60
2021/04/26 04:07:32;;;;;;;43.72;6.03;;;15.20;50.00;;;;;;5021697;28;20112;-60
2021/04/26 04:09:58;;;;;;;38.10;6.07;;;15.20;50.00;;;;;;5022194;28;20227;-59
2021/04/26 04:12:23;;;;;;;21.67;4.95;;;15.20;50.00;;;;;;5022413;28;20040;-60
2021/04/26 04:14:49;;;;;;;43.05;6.53;;;15.20;50.00;;;;;;5039529;28;20049;-60
2021/04/26 04:17:14;;;;;;;40.65;5.93;;;15.20;50.10;;;;;;5022656;28;20041;-61
2021/04/26 04:19:41;;;;;;;42.97;6.25;;;15.20;50.10;;;;;;5021128;28;20036;-60
2021/04/26 04:22:07;;;;;;;39.28;5.82;;;15.20;50.10;;;;;;5007056;28;20021;-60
2021/04/26 04:24:32;;;;;;;38.45;6.55;;;15.10;50.00;;;;;;5018084;28;20045;-60
2021/04/26 04:26:57;;;;;;;32.65;6.05;;;15.10;50.00;;;;;;5039672;28;20098;-60
2021/04/26 04:29:23;;;;;;;27.13;5.28;;;15.10;50.10;;;;;;5020390;28;20052;-62
2021/04/26 04:31:49;;;;;;;27.10;4.53;;;15.10;50.10;;;;;;5039572;28;20450;-60
2021/04/26 04:34:14;;;;;;;24.55;5.15;;;15.10;50.10;;;;;;5020923;28;20028;-60
2021/04/26 04:36:40;;;;;;;34.05;5.68;;;15.00;50.10;;;;;;5022877;28;20578;-61
2021/04/26 04:39:05;;;;;;;31.55;5.32;;;15.00;50.20;;;;;;5023567;28;20059;-60
2021/04/26 04:41:31;;;;;;;31.50;5.03;;;15.00;50.20;;;;;;5041376;28;20060;-61
2021/04/26 04:43:57;;;;;;;24.73;5.05;;;15.00;50.30;;;;;;5025342;28;20484;-61
2021/04/26 04:46:22;;;;;;;24.10;5.05;;;15.00;50.90;;;;;;5041333;28;20053;-60
2021/04/26 04:48:48;;;;;;;41.08;5.30;;;14.90;50.30;;;;;;5041979;28;20380;-60
2021/04/26 04:51:13;;;;;;;32.00;5.22;;;14.90;50.30;;;;;;5023291;28;20055;-60
2021/04/26 04:53:39;;;;;;;26.05;4.82;;;14.90;50.30;;;;;;5040572;28;20126;-61
2021/04/26 04:56:05;;;;;;;21.77;4.97;;;14.90;50.40;;;;;;5022775;28;20032;-60
2021/04/26 04:58:30;;;;;;;20.80;4.78;;;14.90;50.40;;;;;;5024479;28;20033;-60
2021/04/26 05:00:56;;;;;;;21.55;4.35;;;14.90;50.40;;;;;;5024354;28;20031;-60
2021/04/26 05:03:21;;;;;;;25.00;5.28;;;14.90;50.50;;;;;;5022630;28;20029;-60
2021/04/26 05:05:47;;;;;;;26.27;4.80;;;14.90;50.50;;;;;;5038710;28;20124;-60
2021/04/26 05:08:12;;;;;;;33.05;4.88;;;14.80;50.50;;;;;;5022910;28;20047;-60
2021/04/26 05:10:38;;;;;;;20.52;5.95;;;14.80;50.50;;;;;;5025716;28;20055;-60
2021/04/26 05:13:04;;;;;;;26.27;4.80;;;14.80;50.60;;;;;;5021803;28;20491;-61
2021/04/26 05:15:29;;;;;;;21.05;5.43;;;14.80;50.60;;;;;;5042182;28;20048;-60
2021/04/26 05:17:55;;;;;;;20.40;4.22;;;14.80;50.50;;;;;;5019070;28;20029;-61
2021/04/26 05:20:21;;;;;;;19.27;4.50;;;14.80;50.50;;;;;;5022241;28;20049;-61
2021/04/26 05:22:47;;;;;;;20.10;4.15;;;14.80;50.60;;;;;;5018249;28;20021;-60
2021/04/26 05:25:12;;;;;;;14.80;4.18;;;14.80;50.60;;;;;;5022961;28;20476;-60
2021/04/26 05:27:38;;;;;;;15.20;4.40;;;14.70;50.50;;;;;;5007298;28;20033;-60
2021/04/26 05:30:04;;;;;;;23.60;4.75;;;14.70;50.50;;;;;;5003325;28;20385;-60
2021/04/26 05:32:30;;;;;;;19.15;5.10;;;14.80;50.60;;;;;;5019324;28;20044;-60
2021/04/26 05:34:55;;;;;;;16.45;4.47;;;14.70;50.60;;;;;;5002555;28;20024;-60
2021/04/26 05:37:21;;;;;;;22.48;4.85;;;14.70;50.70;;;;;;5036843;28;20028;-60
2021/04/26 05:39:47;;;;;;;21.08;4.18;;;14.70;50.70;;;;;;5035778;28;20096;-60
2021/04/26 05:42:12;;;;;;;15.63;4.68;;;14.70;50.70;;;;;;5035742;28;20612;-61
2021/04/26 05:44:37;;;;;;;20.45;3.90;;;14.70;50.70;;;;;;5036774;28;20040;-61
2021/04/26 05:47:03;;;;;;;18.52;5.05;;;14.70;50.80;;;;;;5036169;28;20080;-61
2021/04/26 05:49:28;;;;;;;13.77;4.30;;;14.70;50.80;;;;;;5034586;28;20056;-60
2021/04/26 05:51:54;;;;;;;15.93;4.10;;;14.70;50.80;;;;;;5039850;28;20120;-61
2021/04/26 05:54:19;;;;;;;16.08;3.72;;;14.60;50.90;;;;;;5040333;28;20043;-60
2021/04/26 05:56:45;;;;;;;19.27;4.20;;;14.70;50.80;;;;;;5021903;28;20032;-60
2021/04/26 05:59:11;;;;;;;17.05;4.40;;;14.60;50.80;;;;;;5015073;28;20945;-61
2021/04/26 06:01:36;;;;;;;18.80;4.13;;;14.70;50.80;;;;;;5016094;28;20052;-60
2021/04/26 06:04:02;;;;;;;14.07;3.92;;;14.70;50.80;;;;;;5035402;28;20029;-61
2021/04/26 06:06:28;;;;;;;17.30;4.15;;;14.70;50.90;;;;;;5019717;28;20496;-60
2021/04/26 06:08:54;;;;;;;16.42;4.13;;;14.60;50.80;;;;;;5004372;28;20029;-60
2021/04/26 06:11:19;;;;;;;21.90;4.70;;;14.60;50.80;;;;;;5041623;28;20106;-60
2021/04/26 06:13:45;;;;;;;21.13;3.97;;;14.60;50.90;;;;;;5020618;28;20037;-60
2021/04/26 06:16:10;;;;;;;20.80;4.30;;;14.60;51.10;;;;;;5019303;28;20458;-60
2021/04/26 06:18:36;;;;;;;20.23;4.13;;;14.60;51.20;;;;;;5022938;28;20424;-60
2021/04/26 06:21:01;;;;;;;90.50;10.95;;;14.60;51.30;;;;;;5037723;28;20027;-60
2021/04/26 06:23:27;;;;;;;28.48;5.38;;;14.70;51.60;;;;;;5033827;28;20040;-60
2021/04/26 06:25:52;;;;;;;68.45;8.30;;;14.70;51.50;;;;;;5018448;28;20035;-61
2021/04/26 06:28:18;;;;;;;93.68;12.40;;;14.70;51.60;;;;;;5004220;28;20121;-63
2021/04/26 06:30:45;;;;;;;31.50;6.15;;;14.70;51.50;;;;;;5002836;28;20029;-60
2021/04/26 06:33:15;;;;;;;76.95;8.77;;;14.70;51.70;;;;;;5018918;28;20337;-60
2021/04/26 06:35:42;;;;;;;26.52;6.25;;;14.70;51.60;;;;;;5037364;28;20017;-60
2021/04/26 06:38:07;;;;;;;47.72;6.18;;;14.70;51.60;;;;;;5004625;28;20033;-60
2021/04/26 06:40:33;;;;;;;23.33;4.97;;;14.70;51.70;;;;;;5037921;28;20037;-60
2021/04/26 06:42:58;;;;;;;33.60;5.20;;;14.70;51.70;;;;;;5019018;28;20055;-60
2021/04/26 06:45:24;;;;;;;23.70;5.18;;;14.70;51.50;;;;;;5018953;28;20027;-61
2021/04/26 06:47:53;;;;;;;34.92;5.40;;;14.70;51.40;;;;;;4988785;28;20400;-60
2021/04/26 06:50:18;;;;;;;39.40;5.32;;;14.80;51.50;;;;;;5000057;28;20068;-60
2021/04/26 06:52:45;;;;;;;35.67;6.10;;;14.80;51.60;;;;;;5019418;28;20083;-61
2021/04/26 06:55:11;;;;;;;40.25;5.25;;;14.80;51.60;;;;;;5003082;28;20025;-60
2021/04/26 06:57:36;;;;;;;33.95;6.18;;;14.80;51.60;;;;;;5019151;28;20551;-60
2021/04/26 07:00:04;;;;;;;43.88;5.68;;;14.80;51.70;;;;;;5033124;28;20044;-61
2021/04/26 07:02:29;;;;;;;46.70;6.65;;;14.90;52.30;;;;;;5034861;28;20111;-61
2021/04/26 07:04:55;;;;;;;32.45;5.78;;;14.80;52.10;;;;;;5038770;28;20131;-60
2021/04/26 07:07:20;;;;;;;29.85;5.70;;;14.80;51.90;;;;;;5039548;28;20032;-60
2021/04/26 07:09:46;;;;;;;33.40;6.25;;;14.80;51.70;;;;;;5042661;28;20366;-60
2021/04/26 07:12:11;;;;;;;38.58;6.43;;;14.80;51.80;;;;;;5023198;28;20589;-60
2021/04/26 07:14:37;;;;;;;52.40;6.85;;;14.80;51.70;;;;;;5022338;28;20044;-61
2021/04/26 07:17:03;;;;;;;32.85;6.60;;;14.80;51.80;;;;;;5040997;28;20984;-60
2021/04/26 07:19:28;;;;;;;38.58;6.57;;;14.80;51.70;;;;;;5040490;28;20072;-60
2021/04/26 07:21:53;;;;;;;46.03;6.97;;;14.80;51.90;;;;;;5022415;28;20060;-60
2021/04/26 07:24:19;;;;;;;49.88;6.55;;;14.80;51.90;;;;;;5040477;28;20487;-60
2021/04/26 07:26:45;;;;;;;51.08;7.22;;;14.80;52.00;;;;;;5041636;28;20025;-60
2021/04/26 07:29:10;;;;;;;39.95;5.97;;;14.80;52.00;;;;;;5039508;28;20542;-61
2021/04/26 07:31:36;;;;;;;95.72;9.55;;;14.70;52.00;;;;;;5023258;28;20493;-61
2021/04/26 07:34:01;;;;;;;56.25;8.05;;;14.70;51.90;;;;;;5036694;28;20056;-60
2021/04/26 07:36:27;;;;;;;42.25;7.03;;;14.70;52.00;;;;;;5043580;28;20111;-60
2021/04/26 07:38:52;;;;;;;53.65;7.32;;;14.70;52.10;;;;;;5040964;28;20035;-61
2021/04/26 07:41:18;;;;;;;76.43;10.15;;;14.70;52.00;;;;;;5041105;28;20049;-60
2021/04/26 07:43:43;;;;;;;51.05;7.80;;;14.70;52.20;;;;;;5042150;28;20037;-60
2021/04/26 07:46:09;;;;;;;52.08;7.10;;;14.70;52.20;;;;;;5041249;28;20400;-60
2021/04/26 07:48:37;;;;;;;48.22;7.22;;;14.60;52.10;;;;;;5008636;28;20488;-60
2021/04/26 07:51:02;;;;;;;69.45;7.95;;;14.60;52.20;;;;;;5043972;28;20025;-60
2021/04/26 07:53:28;;;;;;;52.92;7.88;;;14.70;52.40;;;;;;5038311;28;20033;-61
2021/04/26 07:55:54;;;;;;;55.40;8.07;;;14.70;52.10;;;;;;5006402;28;20024;-60
2021/04/26 07:58:20;;;;;;;50.78;7.90;;;14.80;52.30;;;;;;5025389;28;20037;-61
2021/04/26 08:00:45;;;;;;;55.22;7.75;;;14.70;52.20;;;;;;5022174;28;20044;-61
2021/04/26 08:03:11;;;;;;;69.65;8.13;;;14.70;52.20;;;;;;5038723;28;20044;-61
2021/04/26 08:05:37;;;;;;;49.45;6.97;;;14.70;52.30;;;;;;5038992;28;20082;-60
2021/04/26 08:08:02;;;;;;;42.28;6.93;;;14.70;52.30;;;;;;5038908;28;20036;-61
2021/04/26 08:10:28;;;;;;;87.97;8.43;;;14.70;52.40;;;;;;5020556;28;20037;-60
2021/04/26 08:12:53;;;;;;;41.13;6.97;;;14.70;52.40;;;;;;5020829;28;20045;-60
2021/04/26 08:15:21;;;;;;;36.28;7.30;;;14.70;52.30;;;;;;5039608;28;20813;-60
2021/04/26 08:17:47;;;;;;;50.47;7.47;;;14.70;52.40;;;;;;5007549;28;20047;-60
2021/04/26 08:20:12;;;;;;;70.47;9.43;;;14.70;52.50;;;;;;5037267;28;20041;-60
2021/04/26 08:22:38;;;;;;;50.65;7.47;;;14.70;52.60;;;;;;5036162;28;20378;-61
2021/04/26 08:25:04;;;;;;;42.80;7.30;;;14.70;52.50;;;;;;5022625;28;20245;-61
2021/04/26 08:27:29;;;;;;;46.22;6.80;;;14.70;52.50;;;;;;5005410;28;20025;-60
2021/04/26 08:29:55;;;;;;;44.97;7.28;;;14.70;52.50;;;;;;5020019;28;20601;-61
2021/04/26 08:32:21;;;;;;;32.10;6.57;;;14.70;52.50;;;;;;5041259;28;20059;-60
2021/04/26 08:34:46;;;;;;;34.40;6.07;;;14.70;52.50;;;;;;5021419;28;20116;-61
2021/04/26 08:37:12;;;;;;;36.30;6.50;;;14.70;52.60;;;;;;5036845;28;20114;-60
2021/04/26 08:39:37;;;;;;;19.17;5.57;;;14.70;52.60;;;;;;5037616;28;20049;-61
2021/04/26 08:42:04;;;;;;;18.27;5.15;;;14.70;52.70;;;;;;5042978;28;20113;-60
2021/04/26 08:44:30;;;;;;;28.27;6.10;;;14.70;52.70;;;;;;5038254;28;20025;-60
2021/04/26 08:46:56;;;;;;;42.60;5.88;;;14.70;52.80;;;;;;5041149;28;20046;-61
2021/04/26 08:49:21;;;;;;;27.23;5.72;;;14.70;52.80;;;;;;5038144;28;20085;-60
2021/04/26 08:51:47;;;;;;;32.72;5.63;;;14.70;52.80;;;;;;5004689;28;20045;-61
2021/04/26 08:54:17;;;;;;;37.05;6.65;;;14.80;52.90;;;;;;5001337;28;20284;-60
2021/04/26 08:56:43;;;;;;;26.30;5.85;;;14.80;53.00;;;;;;5018147;28;20063;-60
2021/04/26 08:59:09;;;;;;;23.17;5.70;;;14.80;53.00;;;;;;5021580;28;20104;-60
2021/04/26 09:01:35;;;;;;;36.35;5.72;;;14.80;52.90;;;;;;5036638;28;20090;-61
2021/04/26 09:04:08;;;;;;;42.67;6.97;;;14.90;53.00;;;;;;5014475;28;20079;-60
2021/04/26 09:06:52;;;;;;;30.73;5.60;;;14.90;53.00;;;;;;5022840;28;20021;-60
2021/04/26 09:09:36;;;;;;;42.17;6.05;;;14.90;53.10;;;;;;5041296;28;20123;-61
2021/04/26 09:12:02;;;;;;;36.42;6.65;;;14.90;53.20;;;;;;5040633;28;20118;-61
2021/04/26 09:14:42;;;;;;;43.05;6.65;;;14.90;53.30;;;;;;5003614;28;20520;-61
2021/04/26 09:17:33;;;;;;;42.80;6.47;;;15.00;53.40;;;;;;5004436;28;20128;-61
2021/04/26 09:20:14;;;;;;;28.52;5.75;;;15.00;53.40;;;;;;5038200;28;20025;-60
2021/04/26 09:22:44;;;;;;;33.65;6.45;;;15.00;53.50;;;;;;5022510;28;20493;-60
2021/04/26 09:25:29;;;;;;;29.27;6.78;;;15.00;53.30;;;;;;5040232;28;20498;-60
2021/04/26 09:28:01;;;;;;;21.40;5.65;;;15.10;53.60;;;;;;5022507;28;20029;-60
2021/04/26 09:30:42;;;;;;;29.60;6.18;;;15.10;53.40;;;;;;5037179;28;20033;-60
2021/04/26 09:33:18;;;;;;;36.65;6.28;;;15.20;53.50;;;;;;5039052;28;20576;-60
2021/04/26 09:35:44;;;;;;;;;;;15.20;53.70;;;;;;5023215;28;20104;-60
2021/04/26 09:38:29;;;;;;;36.85;7.63;;;15.20;53.80;;;;;;5023985;28;19920;-60
2021/04/26 09:41:16;;;;;;;40.47;6.60;;;15.20;53.60;;;;;;5036632;28;20412;-60
2021/04/26 09:43:44;;;;;;;32.47;6.28;;;15.30;53.80;;;;;;5004621;28;20033;-61
2021/04/26 09:46:09;;;;;;;45.72;6.78;;;15.10;54.00;;;;;;5021174;28;20033;-60
2021/04/26 09:48:35;;;;;;;32.60;6.43;;;15.30;54.30;;;;;;5020420;28;20338;-61
2021/04/26 09:51:04;;;;;;;43.65;6.07;;;15.30;54.20;;;;;;5017165;28;20112;-60
2021/04/26 09:53:32;;;;;;;38.38;6.45;;;15.40;54.20;;;;;;5037551;28;20120;-60
2021/04/26 09:56:08;;;;;;;56.88;7.43;;;15.40;54.30;;;;;;5032383;28;20133;-60
2021/04/26 09:58:33;;;;;;;37.55;6.30;;;15.40;54.40;;;;;;5001776;28;21206;-61
2021/04/26 10:00:59;;;;;;;38.28;6.00;;;15.50;54.10;;;;;;5004019;28;20059;-60
2021/04/26 10:03:27;;;;;;;34.85;6.13;;;15.40;53.60;;;;;;5038412;28;20059;-60
2021/04/26 10:05:53;;;;;;;34.35;6.32;;;15.60;53.60;;;;;;5021474;28;20036;-60
2021/04/26 10:08:18;;;;;;;26.55;5.13;;;15.50;53.40;;;;;;5037663;28;20032;-60
2021/04/26 10:10:44;;;;;;;21.98;5.55;;;15.50;53.80;;;;;;5035555;28;20045;-60
2021/04/26 10:13:10;;;;;;;35.53;6.25;;;15.50;53.70;;;;;;5034710;28;20051;-61
2021/04/26 10:15:36;;;;;;;27.90;5.93;;;15.50;53.90;;;;;;5017287;28;20512;-61
2021/04/26 10:18:02;;;;;;;22.08;5.20;;;15.60;53.60;;;;;;5014134;28;20040;-60
2021/04/26 10:20:46;;;;;;;25.30;5.63;;;15.50;53.20;;;;;;5003530;28;20032;-61
2021/04/26 10:23:37;;;;;;;16.10;4.88;;;15.50;53.30;;;;;;5032308;28;20045;-60
2021/04/26 10:26:02;;;;;;;14.80;5.75;;;15.50;53.30;;;;;;5018907;28;20508;-61
2021/04/26 10:28:35;;;;;;;15.52;5.03;;;15.50;53.30;;;;;;5002745;28;20725;-61
2021/04/26 10:31:02;;;;;;;16.92;5.28;;;15.50;53.40;;;;;;5020304;28;20083;-61
2021/04/26 10:33:47;;;;;;;21.85;6.03;;;15.50;53.60;;;;;;5038891;28;20465;-60
2021/04/26 10:36:12;;;;;;;21.15;5.68;;;15.50;53.50;;;;;;5021185;28;20106;-60
2021/04/26 10:38:46;;;;;;;39.17;6.60;;;15.50;53.60;;;;;;5002348;28;20041;-61
2021/04/26 10:41:32;;;;;;;22.77;6.80;;;15.50;54.00;;;;;;5009041;28;20048;-59
2021/04/26 10:43:57;;;;;;;30.08;6.78;;;15.50;53.40;;;;;;5024641;28;20558;-60
2021/04/26 10:46:23;;;;;;;18.75;6.32;;;15.50;53.50;;;;;;5006957;28;20044;-60
2021/04/26 10:49:05;;;;;;;30.17;5.95;;;15.60;53.40;;;;;;5026812;28;20503;-61
2021/04/26 10:51:31;;;;;;;14.63;5.40;;;15.60;53.60;;;;;;5030791;28;20025;-61
2021/04/26 10:53:56;;;;;;;18.10;5.30;;;15.60;53.30;;;;;;5029880;28;20416;-60
2021/04/26 10:56:26;;;;;;;20.88;5.95;;;15.60;53.10;;;;;;5015006;28;20029;-60
2021/04/26 10:59:12;;;;;;;18.83;6.38;;;15.60;53.40;;;;;;5004871;28;20502;-60
2021/04/26 11:01:50;;;;;;;20.98;6.13;;;15.60;53.40;;;;;;5026951;28;20044;-60
2021/04/26 11:04:16;;;;;;;22.25;6.30;;;15.70;53.30;;;;;;5035459;28;20684;-60
2021/04/26 11:07:20;;;;;;;23.58;6.93;;;15.70;53.20;;;;;;5022721;28;20033;-60
2021/04/26 11:09:46;;;;;;;20.85;6.57;;;15.70;53.30;;;;;;5038549;28;20047;-61
2021/04/26 11:12:41;;;;;;;27.00;6.05;;;15.80;53.10;;;;;;5036638;28;20397;-61
2021/04/26 11:15:20;;;;;;;14.45;5.97;;;15.80;53.20;;;;;;5001559;28;20049;-61
2021/04/26 11:17:45;;;;;;;18.35;6.18;;;15.80;53.20;;;;;;5018466;28;20198;-61
2021/04/26 11:20:12;;;;;;;22.58;6.47;;;15.90;53.20;;;;;;5004214;28;20038;-61
2021/04/26 11:22:38;;;;;;;20.10;6.35;;;15.90;53.00;;;;;;5041283;28;20380;-60
2021/04/26 11:25:04;;;;;;;21.08;7.38;;;16.00;52.90;;;;;;5007250;28;20021;-61
2021/04/26 11:27:30;;;;;;;35.30;6.35;;;16.00;52.90;;;;;;5042507;28;20245;-61
2021/04/26 11:29:56;;;;;;;41.25;7.07;;;16.10;52.80;;;;;;5017555;28;20431;-60
2021/04/26 11:32:22;;;;;;;33.45;6.25;;;16.10;52.90;;;;;;5040807;28;20455;-61
2021/04/26 11:34:48;;;;;;;32.83;7.28;;;16.20;52.70;;;;;;5040014;28;20029;-61
2021/04/26 11:37:14;;;;;;;18.40;5.95;;;16.20;52.60;;;;;;5039919;28;20028;-61
2021/04/26 11:39:42;;;;;;;20.70;6.22;;;16.20;52.30;;;;;;5021022;28;21170;-61
2021/04/26 11:42:10;;;;;;;13.88;6.05;;;16.20;52.00;;;;;;5025424;28;20126;-61
2021/04/26 11:44:36;;;;;;;24.83;6.50;;;16.20;51.80;;;;;;5017059;28;20520;-60
2021/04/26 11:47:02;;;;;;;22.13;6.40;;;16.30;52.00;;;;;;5045203;28;20495;-61
2021/04/26 11:49:28;;;;;;;17.75;6.47;;;16.30;51.70;;;;;;5039670;28;20029;-62
2021/04/26 11:51:54;;;;;;;15.25;5.65;;;16.40;51.60;;;;;;5041029;28;20179;-61
2021/04/26 11:54:25;;;;;;;12.40;5.93;;;16.40;51.60;;;;;;5023523;28;20298;-60
2021/04/26 11:57:05;;;;;;;35.38;7.70;;;16.40;51.70;;;;;;5024122;28;20079;-61
2021/04/26 11:59:30;;;;;;;12.15;6.13;;;16.50;51.60;;;;;;5043026;28;20196;-60
2021/04/26 12:01:56;;;;;;;24.50;6.63;;;16.50;51.50;;;;;;5011992;28;20506;-61
2021/04/26 12:04:36;;;;;;;15.75;6.20;;;16.50;52.10;;;;;;5039211;28;20037;-60
2021/04/26 12:07:02;;;;;;;20.58;6.15;;;16.60;51.20;;;;;;5018868;28;20390;-61
2021/04/26 12:09:28;;;;;;;26.30;6.72;;;16.70;51.20;;;;;;5023599;28;20025;-60
2021/04/26 12:12:00;;;;;;;23.02;5.72;;;16.70;51.10;;;;;;5037438;28;20031;-61
2021/04/26 12:14:26;;;;;;;23.25;6.53;;;16.70;51.10;;;;;;5039724;28;20029;-61
2021/04/26 12:16:51;;;;;;;13.48;6.07;;;16.70;51.00;;;;;;5037615;28;20036;-61
2021/04/26 12:19:33;;;;;;;17.10;6.13;;;16.80;51.00;;;;;;5038166;28;20439;-61
2021/04/26 12:21:58;;;;;;;11.30;6.65;;;16.70;50.80;;;;;;5005357;28;20123;-61
2021/04/26 12:24:24;;;;;;;16.42;5.82;;;16.70;51.10;;;;;;5015671;28;20106;-60
2021/04/26 12:26:49;;;;;;;15.95;6.38;;;16.70;51.10;;;;;;5036490;28;20933;-61
2021/04/26 12:29:28;;;;;;;20.27;6.10;;;16.80;51.10;;;;;;5005134;28;20533;-61
2021/04/26 12:32:13;;;;;;;15.48;6.35;;;16.90;51.00;;;;;;5022012;28;20040;-60
2021/04/26 12:34:45;;;;;;;11.00;5.47;;;16.90;50.80;;;;;;5037677;28;20052;-61
2021/04/26 12:37:11;;;;;;;24.50;6.13;;;17.00;50.70;;;;;;5019589;28;20127;-61
2021/04/26 12:39:37;;;;;;;21.63;5.88;;;17.00;50.60;;;;;;5039643;28;20385;-60
2021/04/26 12:42:17;;;;;;;13.98;6.18;;;17.00;50.70;;;;;;5040274;28;20029;-61